sensor_id;sensor_type;location;lat;lon;timestamp;temperature;humidity
13561;DHT22;6852;51.686;5.314;2022-09-03T00:01:24;19.50;99.90
13561;DHT22;6852;51.686;5.314;2022-09-03T00:04:04;19.40;99.90
13561;DHT22;6852;51.686;5.314;2022-09-03T00:06:39;19.40;99.90
13561;DHT22;6852;51.686;5.314;2022-09-03T00:09:23;19.40;99.90
13561;DHT22;6852;51.686;5.314;2022-09-03T00:17:12;19.30;99.90
13561;DHT22;6852;51.686;5.314;2022-09-03T00:19:45;19.30;99.90
13561;DHT22;6852;51.686;5.314;2022-09-03T00:22:27;19.30;99.90
13561;DHT22;6852;51.686;5.314;2022-09-03T00:24:57;19.20;99.90
13561;DHT22;6852;51.686;5.314;2022-09-03T00:27:27;19.20;99.90
13561;DHT22;6852;51.686;5.314;2022-09-03T00:30:04;19.20;99.90
13561;DHT22;6852;51.686;5.314;2022-09-03T00:32:48;19.20;99.90
13561;DHT22;6852;51.686;5.314;2022-09-03T00:35:22;19.20;99.90
13561;DHT22;6852;51.686;5.314;2022-09-03T00:37:52;19.10;99.90
13561;DHT22;6852;51.686;5.314;2022-09-03T00:44:08;19.00;99.90
13561;DHT22;6852;51.686;5.314;2022-09-03T00:46:59;19.00;99.90
13561;DHT22;6852;51.686;5.314;2022-09-03T00:50:40;19.00;99.90
13561;DHT22;6852;51.686;5.314;2022-09-03T00:52:43;18.90;99.90
13561;DHT22;6852;51.686;5.314;2022-09-03T00:55:55;18.90;99.90
13561;DHT22;6852;51.686;5.314;2022-09-03T00:58:40;18.80;99.90
13561;DHT22;6852;51.686;5.314;2022-09-03T01:01:35;18.80;99.90
13561;DHT22;6852;51.686;5.314;2022-09-03T01:07:13;18.70;99.90
13561;DHT22;6852;51.686;5.314;2022-09-03T01:09:52;18.70;99.90
13561;DHT22;6852;51.686;5.314;2022-09-03T01:15:36;18.60;99.90
13561;DHT22;6852;51.686;5.314;2022-09-03T01:29:33;18.50;99.90
13561;DHT22;6852;51.686;5.314;2022-09-03T01:40:45;18.50;99.90
13561;DHT22;6852;51.686;5.314;2022-09-03T01:48:39;18.30;99.90
13561;DHT22;6852;51.686;5.314;2022-09-03T01:51:19;18.30;99.90
13561;DHT22;6852;51.686;5.314;2022-09-03T01:54:02;18.30;99.90
13561;DHT22;6852;51.686;5.314;2022-09-03T02:00:06;18.30;99.90
13561;DHT22;6852;51.686;5.314;2022-09-03T02:02:33;18.30;99.90
13561;DHT22;6852;51.686;5.314;2022-09-03T02:05:10;18.30;99.90
13561;DHT22;6852;51.686;5.314;2022-09-03T02:07:41;18.30;99.90
13561;DHT22;6852;51.686;5.314;2022-09-03T02:10:27;18.20;99.90
13561;DHT22;6852;51.686;5.314;2022-09-03T02:13:22;18.20;99.90
13561;DHT22;6852;51.686;5.314;2022-09-03T02:15:51;18.20;99.90
13561;DHT22;6852;51.686;5.314;2022-09-03T02:18:30;18.20;99.90
13561;DHT22;6852;51.686;5.314;2022-09-03T02:20:59;18.20;99.90
13561;DHT22;6852;51.686;5.314;2022-09-03T02:23:27;18.20;99.90
13561;DHT22;6852;51.686;5.314;2022-09-03T02:25:57;18.10;99.90
13561;DHT22;6852;51.686;5.314;2022-09-03T02:28:27;18.20;99.90
13561;DHT22;6852;51.686;5.314;2022-09-03T02:30:54;18.10;99.90
13561;DHT22;6852;51.686;5.314;2022-09-03T02:33:22;18.20;99.90
13561;DHT22;6852;51.686;5.314;2022-09-03T02:35:50;18.10;99.90
13561;DHT22;6852;51.686;5.314;2022-09-03T02:38:19;18.10;99.90
13561;DHT22;6852;51.686;5.314;2022-09-03T02:40:47;18.00;99.90
13561;DHT22;6852;51.686;5.314;2022-09-03T02:43:20;18.00;99.90
13561;DHT22;6852;51.686;5.314;2022-09-03T02:45:54;18.10;99.90
13561;DHT22;6852;51.686;5.314;2022-09-03T02:48:23;18.10;99.90
13561;DHT22;6852;51.686;5.314;2022-09-03T02:50:51;18.10;99.90
13561;DHT22;6852;51.686;5.314;2022-09-03T02:53:18;18.00;99.90
13561;DHT22;6852;51.686;5.314;2022-09-03T02:55:45;17.90;99.90
13561;DHT22;6852;51.686;5.314;2022-09-03T02:58:12;17.80;99.90
13561;DHT22;6852;51.686;5.314;2022-09-03T03:00:40;17.80;99.90
13561;DHT22;6852;51.686;5.314;2022-09-03T03:03:06;17.90;99.90
13561;DHT22;6852;51.686;5.314;2022-09-03T03:08:13;17.80;99.90
13561;DHT22;6852;51.686;5.314;2022-09-03T03:10:41;17.90;99.90
13561;DHT22;6852;51.686;5.314;2022-09-03T03:13:11;17.80;99.90
13561;DHT22;6852;51.686;5.314;2022-09-03T03:15:38;17.90;99.90
13561;DHT22;6852;51.686;5.314;2022-09-03T03:18:05;17.80;99.90
13561;DHT22;6852;51.686;5.314;2022-09-03T03:20:33;17.90;99.90
13561;DHT22;6852;51.686;5.314;2022-09-03T03:23:01;17.90;99.90
13561;DHT22;6852;51.686;5.314;2022-09-03T03:25:27;17.90;99.90
13561;DHT22;6852;51.686;5.314;2022-09-03T03:27:54;17.80;99.90
13561;DHT22;6852;51.686;5.314;2022-09-03T03:30:22;17.70;99.90
13561;DHT22;6852;51.686;5.314;2022-09-03T03:32:52;17.80;99.90
13561;DHT22;6852;51.686;5.314;2022-09-03T03:35:21;17.80;99.90
13561;DHT22;6852;51.686;5.314;2022-09-03T03:37:50;17.80;99.90
13561;DHT22;6852;51.686;5.314;2022-09-03T03:40:17;17.70;99.90
13561;DHT22;6852;51.686;5.314;2022-09-03T03:42:45;17.70;99.90
13561;DHT22;6852;51.686;5.314;2022-09-03T03:45:12;17.70;99.90
13561;DHT22;6852;51.686;5.314;2022-09-03T03:47:39;17.60;99.90
13561;DHT22;6852;51.686;5.314;2022-09-03T03:50:06;17.50;99.90
13561;DHT22;6852;51.686;5.314;2022-09-03T03:52:33;17.60;99.90
13561;DHT22;6852;51.686;5.314;2022-09-03T03:55:00;17.60;99.90
13561;DHT22;6852;51.686;5.314;2022-09-03T03:57:29;17.60;99.90
13561;DHT22;6852;51.686;5.314;2022-09-03T03:59:56;17.50;99.90
13561;DHT22;6852;51.686;5.314;2022-09-03T04:02:23;17.60;99.90
13561;DHT22;6852;51.686;5.314;2022-09-03T04:04:51;17.60;99.90
13561;DHT22;6852;51.686;5.314;2022-09-03T04:07:17;17.60;99.90
13561;DHT22;6852;51.686;5.314;2022-09-03T04:09:44;17.60;99.90
13561;DHT22;6852;51.686;5.314;2022-09-03T04:12:12;17.60;99.90
13561;DHT22;6852;51.686;5.314;2022-09-03T04:14:39;17.60;99.90
13561;DHT22;6852;51.686;5.314;2022-09-03T04:17:06;17.40;99.90
13561;DHT22;6852;51.686;5.314;2022-09-03T04:19:38;17.50;99.90
13561;DHT22;6852;51.686;5.314;2022-09-03T04:22:05;17.40;99.90
13561;DHT22;6852;51.686;5.314;2022-09-03T04:24:32;17.40;99.90
13561;DHT22;6852;51.686;5.314;2022-09-03T04:26:59;17.40;99.90
13561;DHT22;6852;51.686;5.314;2022-09-03T04:29:25;17.30;99.90
13561;DHT22;6852;51.686;5.314;2022-09-03T04:31:56;17.30;99.90
13561;DHT22;6852;51.686;5.314;2022-09-03T04:34:41;17.40;99.90
13561;DHT22;6852;51.686;5.314;2022-09-03T04:37:08;17.30;99.90
13561;DHT22;6852;51.686;5.314;2022-09-03T04:39:36;17.20;99.90
13561;DHT22;6852;51.686;5.314;2022-09-03T04:42:03;17.30;99.90
13561;DHT22;6852;51.686;5.314;2022-09-03T04:44:30;17.20;99.90
13561;DHT22;6852;51.686;5.314;2022-09-03T04:46:57;17.20;99.90
13561;DHT22;6852;51.686;5.314;2022-09-03T04:49:24;17.20;99.90
13561;DHT22;6852;51.686;5.314;2022-09-03T04:51:51;17.20;99.90
13561;DHT22;6852;51.686;5.314;2022-09-03T04:54:18;17.20;99.90
13561;DHT22;6852;51.686;5.314;2022-09-03T04:56:44;17.30;99.90
13561;DHT22;6852;51.686;5.314;2022-09-03T04:59:11;17.20;99.90
13561;DHT22;6852;51.686;5.314;2022-09-03T05:01:39;17.20;99.90
13561;DHT22;6852;51.686;5.314;2022-09-03T05:04:06;17.20;99.90
13561;DHT22;6852;51.686;5.314;2022-09-03T05:06:35;17.10;99.90
13561;DHT22;6852;51.686;5.314;2022-09-03T05:09:03;17.10;99.90
13561;DHT22;6852;51.686;5.314;2022-09-03T05:11:30;17.00;99.90
13561;DHT22;6852;51.686;5.314;2022-09-03T05:13:58;17.10;99.90
13561;DHT22;6852;51.686;5.314;2022-09-03T05:16:27;17.10;99.90
13561;DHT22;6852;51.686;5.314;2022-09-03T05:18:57;17.10;99.90
13561;DHT22;6852;51.686;5.314;2022-09-03T05:21:28;17.10;99.90
13561;DHT22;6852;51.686;5.314;2022-09-03T05:23:55;17.20;99.90
13561;DHT22;6852;51.686;5.314;2022-09-03T05:26:25;17.20;99.90
13561;DHT22;6852;51.686;5.314;2022-09-03T05:28:54;17.10;99.90
13561;DHT22;6852;51.686;5.314;2022-09-03T05:31:22;17.00;99.90
13561;DHT22;6852;51.686;5.314;2022-09-03T05:33:53;17.10;99.90
13561;DHT22;6852;51.686;5.314;2022-09-03T05:36:22;17.10;99.90
13561;DHT22;6852;51.686;5.314;2022-09-03T05:38:50;17.10;99.90
13561;DHT22;6852;51.686;5.314;2022-09-03T05:41:20;17.00;99.90
13561;DHT22;6852;51.686;5.314;2022-09-03T05:43:48;17.10;99.90
13561;DHT22;6852;51.686;5.314;2022-09-03T05:46:22;17.20;99.90
13561;DHT22;6852;51.686;5.314;2022-09-03T05:48:53;17.00;99.90
13561;DHT22;6852;51.686;5.314;2022-09-03T05:51:20;17.00;99.90
13561;DHT22;6852;51.686;5.314;2022-09-03T05:53:47;17.00;99.90
13561;DHT22;6852;51.686;5.314;2022-09-03T05:56:20;17.00;99.90
13561;DHT22;6852;51.686;5.314;2022-09-03T05:58:49;17.00;99.90
13561;DHT22;6852;51.686;5.314;2022-09-03T06:01:27;17.10;99.90
13561;DHT22;6852;51.686;5.314;2022-09-03T06:03:57;17.10;99.90
13561;DHT22;6852;51.686;5.314;2022-09-03T06:06:26;17.20;99.90
13561;DHT22;6852;51.686;5.314;2022-09-03T06:08:58;17.10;99.90
13561;DHT22;6852;51.686;5.314;2022-09-03T06:11:25;17.10;99.90
13561;DHT22;6852;51.686;5.314;2022-09-03T06:13:55;17.10;99.90
13561;DHT22;6852;51.686;5.314;2022-09-03T06:16:23;17.20;99.90
13561;DHT22;6852;51.686;5.314;2022-09-03T06:18:58;17.10;99.90
13561;DHT22;6852;51.686;5.314;2022-09-03T06:21:25;17.20;99.90
13561;DHT22;6852;51.686;5.314;2022-09-03T06:23:57;17.20;99.90
13561;DHT22;6852;51.686;5.314;2022-09-03T06:26:26;17.30;99.90
13561;DHT22;6852;51.686;5.314;2022-09-03T06:28:55;17.40;99.90
13561;DHT22;6852;51.686;5.314;2022-09-03T06:31:23;17.40;99.90
13561;DHT22;6852;51.686;5.314;2022-09-03T06:33:51;17.40;99.90
13561;DHT22;6852;51.686;5.314;2022-09-03T06:36:20;17.40;99.90
13561;DHT22;6852;51.686;5.314;2022-09-03T06:38:51;17.40;99.90
13561;DHT22;6852;51.686;5.314;2022-09-03T06:41:21;17.40;99.90
13561;DHT22;6852;51.686;5.314;2022-09-03T06:43:59;17.50;99.90
13561;DHT22;6852;51.686;5.314;2022-09-03T06:46:31;17.50;99.90
13561;DHT22;6852;51.686;5.314;2022-09-03T06:48:58;17.60;99.90
13561;DHT22;6852;51.686;5.314;2022-09-03T06:51:28;17.70;99.90
13561;DHT22;6852;51.686;5.314;2022-09-03T06:54:00;17.60;99.90
13561;DHT22;6852;51.686;5.314;2022-09-03T06:56:27;17.70;99.90
13561;DHT22;6852;51.686;5.314;2022-09-03T06:58:56;17.50;99.90
13561;DHT22;6852;51.686;5.314;2022-09-03T07:01:29;17.40;99.90
13561;DHT22;6852;51.686;5.314;2022-09-03T07:04:01;17.60;99.90
13561;DHT22;6852;51.686;5.314;2022-09-03T07:06:34;17.80;99.90
13561;DHT22;6852;51.686;5.314;2022-09-03T07:09:03;18.00;99.90
13561;DHT22;6852;51.686;5.314;2022-09-03T07:11:30;18.10;99.90
13561;DHT22;6852;51.686;5.314;2022-09-03T07:13:59;18.00;99.90
13561;DHT22;6852;51.686;5.314;2022-09-03T07:16:34;18.10;99.90
13561;DHT22;6852;51.686;5.314;2022-09-03T07:19:02;18.20;99.90
13561;DHT22;6852;51.686;5.314;2022-09-03T07:21:32;18.10;99.90
13561;DHT22;6852;51.686;5.314;2022-09-03T07:24:03;18.20;99.90
13561;DHT22;6852;51.686;5.314;2022-09-03T07:26:37;18.30;99.90
13561;DHT22;6852;51.686;5.314;2022-09-03T07:29:06;18.50;99.90
13561;DHT22;6852;51.686;5.314;2022-09-03T07:31:38;18.70;99.90
13561;DHT22;6852;51.686;5.314;2022-09-03T07:34:08;19.00;99.90
13561;DHT22;6852;51.686;5.314;2022-09-03T07:36:37;19.20;99.90
13561;DHT22;6852;51.686;5.314;2022-09-03T07:39:12;19.30;99.90
13561;DHT22;6852;51.686;5.314;2022-09-03T07:41:40;19.40;99.90
13561;DHT22;6852;51.686;5.314;2022-09-03T07:44:13;19.60;99.90
13561;DHT22;6852;51.686;5.314;2022-09-03T07:46:41;19.70;99.90
13561;DHT22;6852;51.686;5.314;2022-09-03T07:49:10;19.70;99.90
13561;DHT22;6852;51.686;5.314;2022-09-03T07:51:37;19.80;99.90
13561;DHT22;6852;51.686;5.314;2022-09-03T07:54:09;19.80;99.90
13561;DHT22;6852;51.686;5.314;2022-09-03T07:56:38;19.70;99.90
13561;DHT22;6852;51.686;5.314;2022-09-03T07:59:06;19.90;99.90
13561;DHT22;6852;51.686;5.314;2022-09-03T08:01:35;20.10;99.90
13561;DHT22;6852;51.686;5.314;2022-09-03T08:04:04;20.10;99.90
13561;DHT22;6852;51.686;5.314;2022-09-03T08:06:35;20.30;99.90
13561;DHT22;6852;51.686;5.314;2022-09-03T08:09:05;20.50;99.90
13561;DHT22;6852;51.686;5.314;2022-09-03T08:11:36;20.60;99.90
13561;DHT22;6852;51.686;5.314;2022-09-03T08:14:08;20.70;99.90
13561;DHT22;6852;51.686;5.314;2022-09-03T08:16:44;20.70;99.90
13561;DHT22;6852;51.686;5.314;2022-09-03T08:19:12;20.80;99.90
13561;DHT22;6852;51.686;5.314;2022-09-03T08:21:40;20.90;99.90
13561;DHT22;6852;51.686;5.314;2022-09-03T08:24:08;21.10;99.90
13561;DHT22;6852;51.686;5.314;2022-09-03T08:26:38;21.30;99.90
13561;DHT22;6852;51.686;5.314;2022-09-03T08:29:07;21.50;99.90
13561;DHT22;6852;51.686;5.314;2022-09-03T08:31:34;21.70;99.90
13561;DHT22;6852;51.686;5.314;2022-09-03T08:34:04;21.80;99.90
13561;DHT22;6852;51.686;5.314;2022-09-03T08:36:34;21.90;99.90
13561;DHT22;6852;51.686;5.314;2022-09-03T08:39:05;21.70;99.90
13561;DHT22;6852;51.686;5.314;2022-09-03T08:44:27;21.50;99.90
13561;DHT22;6852;51.686;5.314;2022-09-03T08:47:17;21.70;99.90
13561;DHT22;6852;51.686;5.314;2022-09-03T08:50:24;22.00;99.90
13561;DHT22;6852;51.686;5.314;2022-09-03T08:58:22;22.80;99.90
13561;DHT22;6852;51.686;5.314;2022-09-03T09:06:52;23.40;99.90
13561;DHT22;6852;51.686;5.314;2022-09-03T09:09:32;23.50;99.90
13561;DHT22;6852;51.686;5.314;2022-09-03T09:12:20;23.60;99.90
13561;DHT22;6852;51.686;5.314;2022-09-03T09:15:13;23.70;99.90
13561;DHT22;6852;51.686;5.314;2022-09-03T09:23:32;23.80;99.90
13561;DHT22;6852;51.686;5.314;2022-09-03T09:26:05;23.90;99.90
13561;DHT22;6852;51.686;5.314;2022-09-03T09:28:37;23.70;99.90
13561;DHT22;6852;51.686;5.314;2022-09-03T09:31:06;23.40;99.90
13561;DHT22;6852;51.686;5.314;2022-09-03T09:33:36;23.60;99.90
13561;DHT22;6852;51.686;5.314;2022-09-03T09:36:08;24.00;99.90
13561;DHT22;6852;51.686;5.314;2022-09-03T09:38:38;24.40;99.90
13561;DHT22;6852;51.686;5.314;2022-09-03T09:41:19;24.60;99.90
13561;DHT22;6852;51.686;5.314;2022-09-03T09:44:02;24.50;99.90
13561;DHT22;6852;51.686;5.314;2022-09-03T09:46:40;24.80;99.90
13561;DHT22;6852;51.686;5.314;2022-09-03T09:49:36;24.50;99.90
13561;DHT22;6852;51.686;5.314;2022-09-03T09:52:09;24.30;99.90
13561;DHT22;6852;51.686;5.314;2022-09-03T09:54:42;24.30;99.90
13561;DHT22;6852;51.686;5.314;2022-09-03T09:57:20;24.40;99.90
13561;DHT22;6852;51.686;5.314;2022-09-03T09:59:47;24.30;99.90
13561;DHT22;6852;51.686;5.314;2022-09-03T10:02:26;24.30;99.90
13561;DHT22;6852;51.686;5.314;2022-09-03T10:05:00;24.20;99.90
13561;DHT22;6852;51.686;5.314;2022-09-03T10:07:29;24.40;99.90
13561;DHT22;6852;51.686;5.314;2022-09-03T10:12:55;24.50;99.90
13561;DHT22;6852;51.686;5.314;2022-09-03T10:18:22;24.40;99.90
13561;DHT22;6852;51.686;5.314;2022-09-03T10:21:19;24.50;99.90
13561;DHT22;6852;51.686;5.314;2022-09-03T10:26:51;24.40;99.90
13561;DHT22;6852;51.686;5.314;2022-09-03T10:29:20;24.60;99.90
13561;DHT22;6852;51.686;5.314;2022-09-03T10:32:10;24.60;99.90
13561;DHT22;6852;51.686;5.314;2022-09-03T10:40:39;24.40;99.90
13561;DHT22;6852;51.686;5.314;2022-09-03T10:48:38;24.70;99.90
13561;DHT22;6852;51.686;5.314;2022-09-03T10:51:23;24.80;99.90
13561;DHT22;6852;51.686;5.314;2022-09-03T10:56:46;25.10;99.90
13561;DHT22;6852;51.686;5.314;2022-09-03T10:59:36;25.10;99.90
13561;DHT22;6852;51.686;5.314;2022-09-03T11:05:19;25.40;99.90
13561;DHT22;6852;51.686;5.314;2022-09-03T11:07:51;25.50;99.90
13561;DHT22;6852;51.686;5.314;2022-09-03T11:10:25;25.80;99.90
13561;DHT22;6852;51.686;5.314;2022-09-03T11:13:11;26.00;99.90
13561;DHT22;6852;51.686;5.314;2022-09-03T11:15:51;25.60;99.90
13561;DHT22;6852;51.686;5.314;2022-09-03T11:21:04;25.90;99.90
13561;DHT22;6852;51.686;5.314;2022-09-03T11:23:41;26.10;99.90
13561;DHT22;6852;51.686;5.314;2022-09-03T11:26:14;26.60;99.90
13561;DHT22;6852;51.686;5.314;2022-09-03T11:39:51;28.00;99.90
13561;DHT22;6852;51.686;5.314;2022-09-03T11:42:51;28.40;99.90
13561;DHT22;6852;51.686;5.314;2022-09-03T11:45:23;28.20;99.90
13561;DHT22;6852;51.686;5.314;2022-09-03T11:47:51;28.50;99.90
13561;DHT22;6852;51.686;5.314;2022-09-03T11:50:20;28.40;99.90
13561;DHT22;6852;51.686;5.314;2022-09-03T11:52:48;28.10;99.90
13561;DHT22;6852;51.686;5.314;2022-09-03T11:55:31;28.20;99.90
13561;DHT22;6852;51.686;5.314;2022-09-03T11:58:29;27.90;99.90
13561;DHT22;6852;51.686;5.314;2022-09-03T12:01:00;28.50;99.90
13561;DHT22;6852;51.686;5.314;2022-09-03T12:15:15;29.20;99.90
13561;DHT22;6852;51.686;5.314;2022-09-03T12:18:04;29.80;99.90
13561;DHT22;6852;51.686;5.314;2022-09-03T12:21:05;28.50;99.90
13561;DHT22;6852;51.686;5.314;2022-09-03T12:23:46;29.80;99.90
13561;DHT22;6852;51.686;5.314;2022-09-03T12:26:21;30.70;99.90
13561;DHT22;6852;51.686;5.314;2022-09-03T12:28:52;31.30;99.90
13561;DHT22;6852;51.686;5.314;2022-09-03T12:31:24;31.00;99.90
13561;DHT22;6852;51.686;5.314;2022-09-03T12:36:26;31.60;99.90
13561;DHT22;6852;51.686;5.314;2022-09-03T12:39:09;31.00;99.90
13561;DHT22;6852;51.686;5.314;2022-09-03T12:49:57;31.50;99.90
13561;DHT22;6852;51.686;5.314;2022-09-03T12:52:38;30.90;99.90
13561;DHT22;6852;51.686;5.314;2022-09-03T12:55:58;31.20;99.90
13561;DHT22;6852;51.686;5.314;2022-09-03T12:58:08;31.10;99.90
13561;DHT22;6852;51.686;5.314;2022-09-03T13:03:28;33.00;99.90
13561;DHT22;6852;51.686;5.314;2022-09-03T13:06:00;32.50;99.90
13561;DHT22;6852;51.686;5.314;2022-09-03T13:08:33;32.50;99.90
13561;DHT22;6852;51.686;5.314;2022-09-03T13:11:04;31.10;99.90
13561;DHT22;6852;51.686;5.314;2022-09-03T13:13:35;31.00;99.90
13561;DHT22;6852;51.686;5.314;2022-09-03T13:24:56;30.80;99.90
13561;DHT22;6852;51.686;5.314;2022-09-03T13:30:16;30.80;99.90
13561;DHT22;6852;51.686;5.314;2022-09-03T13:38:17;31.60;99.90
13561;DHT22;6852;51.686;5.314;2022-09-03T13:40:54;31.80;99.90
13561;DHT22;6852;51.686;5.314;2022-09-03T13:43:44;32.30;99.90
13561;DHT22;6852;51.686;5.314;2022-09-03T13:46:16;31.90;99.90
13561;DHT22;6852;51.686;5.314;2022-09-03T13:48:47;30.50;99.90
13561;DHT22;6852;51.686;5.314;2022-09-03T13:51:45;31.10;99.90
13561;DHT22;6852;51.686;5.314;2022-09-03T13:54:30;32.10;99.90
13561;DHT22;6852;51.686;5.314;2022-09-03T14:00:11;31.00;99.90
13561;DHT22;6852;51.686;5.314;2022-09-03T14:11:56;30.10;99.90
13561;DHT22;6852;51.686;5.314;2022-09-03T14:14:48;29.90;99.90
13561;DHT22;6852;51.686;5.314;2022-09-03T14:17:37;30.50;99.90
13561;DHT22;6852;51.686;5.314;2022-09-03T14:21:02;30.60;99.90
13561;DHT22;6852;51.686;5.314;2022-09-03T14:26:04;29.90;99.90
13561;DHT22;6852;51.686;5.314;2022-09-03T14:34:02;29.70;99.90
13561;DHT22;6852;51.686;5.314;2022-09-03T14:39:46;30.10;99.90
13561;DHT22;6852;51.686;5.314;2022-09-03T14:48:06;29.90;99.90
13561;DHT22;6852;51.686;5.314;2022-09-03T14:51:21;29.70;99.90
13561;DHT22;6852;51.686;5.314;2022-09-03T14:56:54;29.30;99.90
13561;DHT22;6852;51.686;5.314;2022-09-03T14:59:48;29.30;99.90
13561;DHT22;6852;51.686;5.314;2022-09-03T15:07:57;28.60;99.90
13561;DHT22;6852;51.686;5.314;2022-09-03T15:13:09;28.10;99.90
13561;DHT22;6852;51.686;5.314;2022-09-03T15:26:19;28.10;99.90
13561;DHT22;6852;51.686;5.314;2022-09-03T15:35:17;27.80;99.90
13561;DHT22;6852;51.686;5.314;2022-09-03T15:37:59;27.80;99.90
13561;DHT22;6852;51.686;5.314;2022-09-03T15:40:34;27.70;99.90
13561;DHT22;6852;51.686;5.314;2022-09-03T15:43:18;27.80;99.90
13561;DHT22;6852;51.686;5.314;2022-09-03T15:48:31;27.80;99.90
13561;DHT22;6852;51.686;5.314;2022-09-03T15:59:39;27.50;99.90
13561;DHT22;6852;51.686;5.314;2022-09-03T16:02:30;27.30;99.90
13561;DHT22;6852;51.686;5.314;2022-09-03T16:16:13;27.40;99.90
13561;DHT22;6852;51.686;5.314;2022-09-03T16:21:35;27.30;99.90
13561;DHT22;6852;51.686;5.314;2022-09-03T16:24:27;27.00;99.90
13561;DHT22;6852;51.686;5.314;2022-09-03T16:29:30;27.10;99.90
13561;DHT22;6852;51.686;5.314;2022-09-03T16:37:34;27.20;99.90
13561;DHT22;6852;51.686;5.314;2022-09-03T16:51:46;27.00;99.90
13561;DHT22;6852;51.686;5.314;2022-09-03T16:54:38;26.90;99.90
13561;DHT22;6852;51.686;5.314;2022-09-03T16:57:38;26.90;99.90
13561;DHT22;6852;51.686;5.314;2022-09-03T17:00:14;26.90;99.90
13561;DHT22;6852;51.686;5.314;2022-09-03T17:17:45;26.60;99.90
13561;DHT22;6852;51.686;5.314;2022-09-03T17:25:39;26.50;99.90
13561;DHT22;6852;51.686;5.314;2022-09-03T17:33:41;26.40;99.90
13561;DHT22;6852;51.686;5.314;2022-09-03T17:36:22;26.20;99.90
13561;DHT22;6852;51.686;5.314;2022-09-03T17:41:58;26.20;99.90
13561;DHT22;6852;51.686;5.314;2022-09-03T17:49:57;26.20;99.90
13561;DHT22;6852;51.686;5.314;2022-09-03T17:52:37;26.20;99.90
13561;DHT22;6852;51.686;5.314;2022-09-03T17:55:14;26.20;99.90
13561;DHT22;6852;51.686;5.314;2022-09-03T17:57:47;26.10;99.90
13561;DHT22;6852;51.686;5.314;2022-09-03T18:00:33;26.10;99.90
13561;DHT22;6852;51.686;5.314;2022-09-03T18:05:57;26.00;99.90
13561;DHT22;6852;51.686;5.314;2022-09-03T18:11:25;25.70;99.90
13561;DHT22;6852;51.686;5.314;2022-09-03T18:16:46;25.20;99.90
13561;DHT22;6852;51.686;5.314;2022-09-03T18:19:29;25.30;99.90
13561;DHT22;6852;51.686;5.314;2022-09-03T18:22:01;25.30;99.90
13561;DHT22;6852;51.686;5.314;2022-09-03T18:24:53;25.30;99.90
13561;DHT22;6852;51.686;5.314;2022-09-03T18:27:49;25.20;99.90
13561;DHT22;6852;51.686;5.314;2022-09-03T18:30:38;25.20;99.90
13561;DHT22;6852;51.686;5.314;2022-09-03T18:33:24;25.20;99.90
13561;DHT22;6852;51.686;5.314;2022-09-03T18:36:11;25.10;99.90
13561;DHT22;6852;51.686;5.314;2022-09-03T18:39:25;25.00;99.90
13561;DHT22;6852;51.686;5.314;2022-09-03T18:45:38;24.90;99.90
13561;DHT22;6852;51.686;5.314;2022-09-03T18:49:10;24.80;99.90
13561;DHT22;6852;51.686;5.314;2022-09-03T18:58:23;24.50;99.90
13561;DHT22;6852;51.686;5.314;2022-09-03T19:01:43;24.40;99.90
13561;DHT22;6852;51.686;5.314;2022-09-03T19:08:23;23.70;99.90
13561;DHT22;6852;51.686;5.314;2022-09-03T19:14:05;23.80;99.90
13561;DHT22;6852;51.686;5.314;2022-09-03T19:17:19;23.80;99.90
13561;DHT22;6852;51.686;5.314;2022-09-03T19:20:13;23.80;99.90
13561;DHT22;6852;51.686;5.314;2022-09-03T19:23:02;23.70;99.90
13561;DHT22;6852;51.686;5.314;2022-09-03T19:25:50;23.80;99.90
13561;DHT22;6852;51.686;5.314;2022-09-03T19:28:40;23.80;99.90
13561;DHT22;6852;51.686;5.314;2022-09-03T19:31:38;23.80;99.90
13561;DHT22;6852;51.686;5.314;2022-09-03T19:37:39;23.70;99.90
13561;DHT22;6852;51.686;5.314;2022-09-03T19:46:55;23.60;99.90
13561;DHT22;6852;51.686;5.314;2022-09-03T19:50:23;23.50;99.90
13561;DHT22;6852;51.686;5.314;2022-09-03T19:53:07;23.60;99.90
13561;DHT22;6852;51.686;5.314;2022-09-03T19:55:56;23.50;99.90
13561;DHT22;6852;51.686;5.314;2022-09-03T19:58:55;23.50;99.90
13561;DHT22;6852;51.686;5.314;2022-09-03T20:01:41;23.40;99.90
13561;DHT22;6852;51.686;5.314;2022-09-03T20:04:38;23.40;99.90
13561;DHT22;6852;51.686;5.314;2022-09-03T20:07:25;23.20;99.90
13561;DHT22;6852;51.686;5.314;2022-09-03T20:10:13;22.80;99.90
13561;DHT22;6852;51.686;5.314;2022-09-03T20:15:22;22.40;99.90
13561;DHT22;6852;51.686;5.314;2022-09-03T20:17:59;22.60;99.90
13561;DHT22;6852;51.686;5.314;2022-09-03T20:20:41;22.80;99.90
13561;DHT22;6852;51.686;5.314;2022-09-03T20:23:19;22.80;99.90
13561;DHT22;6852;51.686;5.314;2022-09-03T20:26:00;22.70;99.90
13561;DHT22;6852;51.686;5.314;2022-09-03T20:31:48;22.70;99.90
13561;DHT22;6852;51.686;5.314;2022-09-03T20:40:05;22.70;99.90
13561;DHT22;6852;51.686;5.314;2022-09-03T20:42:47;22.60;99.90
13561;DHT22;6852;51.686;5.314;2022-09-03T20:45:22;22.60;99.90
13561;DHT22;6852;51.686;5.314;2022-09-03T20:48:02;22.60;99.90
13561;DHT22;6852;51.686;5.314;2022-09-03T20:51:08;22.60;99.90
13561;DHT22;6852;51.686;5.314;2022-09-03T20:54:03;22.60;99.90
13561;DHT22;6852;51.686;5.314;2022-09-03T21:05:39;21.50;99.90
13561;DHT22;6852;51.686;5.314;2022-09-03T21:11:11;21.70;99.90
13561;DHT22;6852;51.686;5.314;2022-09-03T21:24:59;21.70;99.90
13561;DHT22;6852;51.686;5.314;2022-09-03T21:27:51;21.80;99.90
13561;DHT22;6852;51.686;5.314;2022-09-03T21:30:20;21.80;99.90
13561;DHT22;6852;51.686;5.314;2022-09-03T21:33:05;21.80;99.90
13561;DHT22;6852;51.686;5.314;2022-09-03T21:35:43;21.60;99.90
13561;DHT22;6852;51.686;5.314;2022-09-03T21:38:16;21.60;99.90
13561;DHT22;6852;51.686;5.314;2022-09-03T21:43:33;21.70;99.90
13561;DHT22;6852;51.686;5.314;2022-09-03T21:48:37;21.80;99.90
13561;DHT22;6852;51.686;5.314;2022-09-03T21:51:10;21.70;99.90
13561;DHT22;6852;51.686;5.314;2022-09-03T22:02:13;21.70;99.90
13561;DHT22;6852;51.686;5.314;2022-09-03T22:04:43;21.60;99.90
13561;DHT22;6852;51.686;5.314;2022-09-03T22:10:11;21.40;99.90
13561;DHT22;6852;51.686;5.314;2022-09-03T22:15:44;21.40;99.90
13561;DHT22;6852;51.686;5.314;2022-09-03T22:18:29;21.40;99.90
13561;DHT22;6852;51.686;5.314;2022-09-03T22:21:20;21.40;99.90
13561;DHT22;6852;51.686;5.314;2022-09-03T22:29:27;21.30;99.90
13561;DHT22;6852;51.686;5.314;2022-09-03T22:31:58;21.30;99.90
13561;DHT22;6852;51.686;5.314;2022-09-03T22:34:45;21.30;99.90
13561;DHT22;6852;51.686;5.314;2022-09-03T22:39:55;20.80;99.90
13561;DHT22;6852;51.686;5.314;2022-09-03T22:48:00;20.70;99.90
13561;DHT22;6852;51.686;5.314;2022-09-03T22:56:09;20.70;99.90
13561;DHT22;6852;51.686;5.314;2022-09-03T22:58:53;20.60;99.90
13561;DHT22;6852;51.686;5.314;2022-09-03T23:01:26;20.60;99.90
13561;DHT22;6852;51.686;5.314;2022-09-03T23:04:02;20.60;99.90
13561;DHT22;6852;51.686;5.314;2022-09-03T23:06:36;20.70;99.90
13561;DHT22;6852;51.686;5.314;2022-09-03T23:09:08;20.70;99.90
13561;DHT22;6852;51.686;5.314;2022-09-03T23:11:52;20.60;99.90
13561;DHT22;6852;51.686;5.314;2022-09-03T23:14:42;20.60;99.90